Time,TemperatureF,DewpointF,PressureIn,WindDirection,WindDirectionDegrees,WindSpeedMPH,WindSpeedGustMPH,Humidity,HourlyPrecipIn,Conditions,Clouds,dailyrainin,SoftwareType,DateUTC
2013-03-28 00:00:00,45.3,40.4,30.29,NNW,335,0.0,0.0,83,0.00,,,0.00,Wunderground v.1.15,2013-03-28 04:00:00,
2013-03-28 00:01:00,45.2,40.3,30.30,NNW,335,0.0,0.0,83,0.00,,,0.00,Wunderground v.1.15,2013-03-28 04:01:00,
2013-03-28 00:05:00,45.1,40.2,30.29,NNW,335,0.0,0.0,83,0.00,,,0.00,Wunderground v.1.15,2013-03-28 04:05:00,
2013-03-28 00:10:00,45.0,40.5,30.29,NNW,334,0.0,0.0,84,0.00,,,0.00,Wunderground v.1.15,2013-03-28 04:10:00,
2013-03-28 00:15:00,44.9,40.7,30.29,NNW,334,0.0,0.0,85,0.00,,,0.00,Wunderground v.1.15,2013-03-28 04:15:00,
2013-03-28 00:21:00,44.7,40.5,30.29,NNW,334,0.0,0.0,85,0.00,,,0.00,Wunderground v.1.15,2013-03-28 04:21:00,
2013-03-28 00:27:00,44.6,40.4,30.29,NNW,334,0.0,0.0,85,0.00,,,0.00,Wunderground v.1.15,2013-03-28 04:27:00,
2013-03-28 00:33:00,44.5,40.3,30.30,NNW,335,0.0,0.0,85,0.00,,,0.00,Wunderground v.1.15,2013-03-28 04:33:00,
2013-03-28 00:39:00,44.3,40.4,30.30,NNW,335,0.0,0.0,86,0.00,,,0.00,Wunderground v.1.15,2013-03-28 04:39:00,
2013-03-28 00:45:00,44.3,40.4,30.30,NNW,335,0.0,0.0,86,0.00,,,0.00,Wunderground v.1.15,2013-03-28 04:45:00,
2013-03-28 00:50:00,44.2,40.6,30.30,NNW,334,0.0,0.0,87,0.00,,,0.00,Wunderground v.1.15,2013-03-28 04:50:00,
2013-03-28 00:56:00,44.2,40.6,30.30,NNW,334,0.0,0.0,87,0.00,,,0.00,Wunderground v.1.15,2013-03-28 04:56:00,
2013-03-28 01:02:00,44.1,40.5,30.30,NNW,335,0.0,0.0,87,0.00,,,0.00,Wunderground v.1.15,2013-03-28 05:02:00,
2013-03-28 01:08:00,44.1,40.5,30.29,NNW,335,0.0,0.0,87,0.00,,,0.00,Wunderground v.1.15,2013-03-28 05:08:00,
2013-03-28 01:13:00,44.1,40.5,30.30,NNW,334,0.0,0.0,87,0.00,,,0.00,Wunderground v.1.15,2013-03-28 05:13:00,
2013-03-28 01:18:00,44.1,40.8,30.30,NNW,334,0.0,0.0,88,0.00,,,0.00,Wunderground v.1.15,2013-03-28 05:18:00,
2013-03-28 01:24:00,44.0,40.7,30.30,NNW,334,0.0,0.0,88,0.00,,,0.00,Wunderground v.1.15,2013-03-28 05:24:00,
2013-03-28 01:29:00,44.0,40.7,30.30,NNW,335,0.0,0.0,88,0.00,,,0.00,Wunderground v.1.15,2013-03-28 05:29:00,
2013-03-28 01:35:00,44.0,40.7,30.29,NNW,335,0.0,0.0,88,0.00,,,0.00,Wunderground v.1.15,2013-03-28 05:35:00,
2013-03-28 01:40:00,43.9,40.6,30.29,NNW,335,0.0,0.0,88,0.00,,,0.00,Wunderground v.1.15,2013-03-28 05:40:00,
2013-03-28 01:46:00,43.9,40.9,30.29,NNW,335,0.0,0.0,89,0.00,,,0.00,Wunderground v.1.15,2013-03-28 05:46:00,
2013-03-28 01:52:00,44.0,41.0,30.29,NNW,335,0.0,0.0,89,0.00,,,0.00,Wunderground v.1.15,2013-03-28 05:52:00,
2013-03-28 01:57:00,44.0,41.0,30.28,NNW,335,0.0,0.0,89,0.00,,,0.00,Wunderground v.1.15,2013-03-28 05:57:00,
2013-03-28 02:02:00,43.9,40.9,30.28,NNW,334,0.0,0.0,89,0.00,,,0.00,Wunderground v.1.15,2013-03-28 06:02:00,
2013-03-28 02:08:00,43.8,40.8,30.28,NNW,335,0.0,0.0,89,0.00,,,0.00,Wunderground v.1.15,2013-03-28 06:08:00,
2013-03-28 02:13:00,43.8,40.8,30.28,NNW,334,0.0,0.0,89,0.00,,,0.00,Wunderground v.1.15,2013-03-28 06:13:00,
2013-03-28 02:18:00,43.8,40.8,30.28,NNW,335,0.0,0.0,89,0.00,,,0.00,Wunderground v.1.15,2013-03-28 06:18:00,
2013-03-28 02:24:00,43.8,41.1,30.28,NNW,335,0.0,0.0,90,0.00,,,0.00,Wunderground v.1.15,2013-03-28 06:24:00,
2013-03-28 02:29:00,43.8,40.8,30.28,NNW,335,0.0,0.0,89,0.00,,,0.00,Wunderground v.1.15,2013-03-28 06:29:00,
2013-03-28 02:35:00,43.7,40.7,30.28,NNW,334,0.0,0.0,89,0.00,,,0.00,Wunderground v.1.15,2013-03-28 06:35:00,
2013-03-28 02:41:00,43.7,41.0,30.28,NNW,335,0.0,0.0,90,0.00,,,0.00,Wunderground v.1.15,2013-03-28 06:41:00,
2013-03-28 02:47:00,43.6,40.9,30.27,NNW,334,0.0,0.0,90,0.00,,,0.00,Wunderground v.1.15,2013-03-28 06:47:00,
2013-03-28 02:53:00,43.6,40.9,30.27,NNW,334,0.0,0.0,90,0.00,,,0.00,Wunderground v.1.15,2013-03-28 06:53:00,
2013-03-28 02:58:00,43.5,40.8,30.27,NNW,335,0.0,0.0,90,0.00,,,0.00,Wunderground v.1.15,2013-03-28 06:58:00,
2013-03-28 03:03:00,43.4,40.7,30.27,NNW,335,0.0,0.0,90,0.00,,,0.00,Wunderground v.1.15,2013-03-28 07:03:00,
2013-03-28 03:09:00,43.4,40.7,30.27,NNW,334,0.0,0.0,90,0.00,,,0.00,Wunderground v.1.15,2013-03-28 07:09:00,
2013-03-28 03:15:00,43.4,40.7,30.27,NNW,335,0.0,0.0,90,0.00,,,0.00,Wunderground v.1.15,2013-03-28 07:15:00,
2013-03-28 03:20:00,43.3,40.8,30.27,NNW,335,0.0,0.0,91,0.00,,,0.00,Wunderground v.1.15,2013-03-28 07:20:00,
2013-03-28 03:26:00,43.3,40.8,30.27,NNW,335,0.0,0.0,91,0.00,,,0.00,Wunderground v.1.15,2013-03-28 07:26:00,
2013-03-28 03:31:00,43.3,40.8,30.27,NNW,335,0.0,0.0,91,0.00,,,0.00,Wunderground v.1.15,2013-03-28 07:31:00,
2013-03-28 03:37:00,43.3,40.8,30.27,NNW,335,0.0,0.0,91,0.00,,,0.00,Wunderground v.1.15,2013-03-28 07:37:00,
2013-03-28 03:42:00,43.2,40.8,30.27,NNW,335,0.0,0.0,91,0.00,,,0.00,Wunderground v.1.15,2013-03-28 07:42:00,
2013-03-28 03:47:00,43.2,40.8,30.27,NNW,335,0.0,0.0,91,0.00,,,0.00,Wunderground v.1.15,2013-03-28 07:47:00,
2013-03-28 03:53:00,43.2,40.8,30.27,NNW,335,0.0,0.0,91,0.00,,,0.00,Wunderground v.1.15,2013-03-28 07:53:00,
2013-03-28 03:58:00,43.2,40.8,30.27,NNW,335,0.0,0.0,91,0.00,,,0.00,Wunderground v.1.15,2013-03-28 07:58:00,
2013-03-28 04:04:00,43.2,40.8,30.27,NNW,335,0.0,0.0,91,0.00,,,0.00,Wunderground v.1.15,2013-03-28 08:04:00,
2013-03-28 04:09:00,43.1,40.9,30.27,NNW,335,0.0,0.0,92,0.00,,,0.00,Wunderground v.1.15,2013-03-28 08:09:00,
2013-03-28 04:15:00,43.2,41.0,30.27,NNW,335,0.0,0.0,92,0.00,,,0.00,Wunderground v.1.15,2013-03-28 08:15:00,
2013-03-28 04:20:00,43.2,41.0,30.27,NNW,334,0.0,0.0,92,0.00,,,0.00,Wunderground v.1.15,2013-03-28 08:20:00,
2013-03-28 04:25:00,43.2,41.0,30.26,NNW,335,0.0,0.0,92,0.00,,,0.00,Wunderground v.1.15,2013-03-28 08:25:00,
2013-03-28 04:32:00,43.1,40.9,30.27,NNW,335,0.0,0.0,92,0.00,,,0.00,Wunderground v.1.15,2013-03-28 08:32:00,
2013-03-28 04:38:00,43.1,40.9,30.27,NNW,335,0.0,0.0,92,0.00,,,0.00,Wunderground v.1.15,2013-03-28 08:38:00,
2013-03-28 04:44:00,43.1,40.9,30.27,NNW,334,0.0,0.0,92,0.00,,,0.00,Wunderground v.1.15,2013-03-28 08:44:00,
2013-03-28 04:49:00,43.3,41.4,30.27,NNW,334,0.0,0.0,93,0.00,,,0.00,Wunderground v.1.15,2013-03-28 08:49:00,
2013-03-28 04:55:00,43.4,41.5,30.27,NNW,334,0.0,0.0,93,0.00,,,0.00,Wunderground v.1.15,2013-03-28 08:55:00,
2013-03-28 05:00:00,43.4,41.5,30.27,NNW,334,0.0,0.0,93,0.00,,,0.00,Wunderground v.1.15,2013-03-28 09:00:00,
2013-03-28 05:05:00,43.3,41.4,30.27,NNW,335,0.0,0.0,93,0.00,,,0.00,Wunderground v.1.15,2013-03-28 09:05:00,
2013-03-28 05:11:00,43.4,41.5,30.27,NNW,335,0.0,0.0,93,0.00,,,0.00,Wunderground v.1.15,2013-03-28 09:11:00,
2013-03-28 05:17:00,43.6,41.7,30.27,NNW,335,0.0,0.0,93,0.00,,,0.00,Wunderground v.1.15,2013-03-28 09:17:00,
2013-03-28 05:23:00,43.7,41.8,30.27,NNW,335,0.0,0.0,93,0.00,,,0.00,Wunderground v.1.15,2013-03-28 09:23:00,
2013-03-28 05:28:00,43.8,42.2,30.27,NNW,335,0.0,0.0,94,0.00,,,0.00,Wunderground v.1.15,2013-03-28 09:28:00,
2013-03-28 05:33:00,43.9,42.3,30.27,NNW,335,0.0,0.0,94,0.00,,,0.00,Wunderground v.1.15,2013-03-28 09:33:00,
2013-03-28 05:39:00,44.0,42.4,30.27,NNW,335,0.0,0.0,94,0.00,,,0.00,Wunderground v.1.15,2013-03-28 09:39:00,
2013-03-28 05:44:00,44.0,42.4,30.27,NNW,335,0.0,0.0,94,0.00,,,0.00,Wunderground v.1.15,2013-03-28 09:44:00,
2013-03-28 05:50:00,44.0,42.1,30.28,NNW,335,0.0,0.0,93,0.00,,,0.00,Wunderground v.1.15,2013-03-28 09:50:00,
2013-03-28 05:55:00,44.0,42.1,30.28,NNW,335,0.0,0.0,93,0.00,,,0.00,Wunderground v.1.15,2013-03-28 09:55:00,
2013-03-28 06:01:00,43.9,42.0,30.27,NNW,334,0.0,0.0,93,0.00,,,0.00,Wunderground v.1.15,2013-03-28 10:01:00,
2013-03-28 06:06:00,43.9,42.0,30.28,NNW,335,0.0,0.0,93,0.00,,,0.00,Wunderground v.1.15,2013-03-28 10:06:00,
2013-03-28 06:12:00,43.9,42.0,30.27,NNW,335,0.0,0.0,93,0.00,,,0.00,Wunderground v.1.15,2013-03-28 10:12:00,
2013-03-28 06:17:00,44.0,42.4,30.28,NNW,335,0.0,0.0,94,0.00,,,0.00,Wunderground v.1.15,2013-03-28 10:17:00,
2013-03-28 06:23:00,44.2,42.6,30.28,NNW,335,0.0,0.0,94,0.00,,,0.00,Wunderground v.1.15,2013-03-28 10:23:00,
2013-03-28 06:28:00,44.4,42.8,30.28,NNW,335,0.0,0.0,94,0.00,,,0.00,Wunderground v.1.15,2013-03-28 10:28:00,
2013-03-28 06:34:00,44.6,42.7,30.28,NNW,335,0.0,0.0,93,0.00,,,0.00,Wunderground v.1.15,2013-03-28 10:34:00,
2013-03-28 06:39:00,44.8,42.9,30.28,NNW,335,0.0,0.0,93,0.00,,,0.00,Wunderground v.1.15,2013-03-28 10:39:00,
2013-03-28 06:44:00,44.9,42.7,30.28,NNW,335,0.0,0.0,92,0.00,,,0.00,Wunderground v.1.15,2013-03-28 10:44:00,
2013-03-28 06:50:00,45.0,42.5,30.28,NNW,335,0.0,0.0,91,0.00,,,0.00,Wunderground v.1.15,2013-03-28 10:50:00,
2013-03-28 06:55:00,45.0,42.2,30.28,NNW,335,0.0,0.0,90,0.00,,,0.00,Wunderground v.1.15,2013-03-28 10:55:00,
2013-03-28 07:01:00,45.1,42.1,30.28,NNW,335,0.0,0.0,89,0.00,,,0.00,Wunderground v.1.15,2013-03-28 11:01:00,
2013-03-28 07:07:00,45.0,42.0,30.29,NNW,335,0.0,0.0,89,0.00,,,0.00,Wunderground v.1.15,2013-03-28 11:07:00,
2013-03-28 07:13:00,45.0,41.7,30.29,NNW,335,0.0,0.0,88,0.00,,,0.00,Wunderground v.1.15,2013-03-28 11:13:00,
2013-03-28 07:18:00,44.9,41.6,30.29,NNW,335,0.0,0.0,88,0.00,,,0.00,Wunderground v.1.15,2013-03-28 11:18:00,
2013-03-28 07:23:00,44.9,41.6,30.29,NNW,334,0.0,0.0,88,0.00,,,0.00,Wunderground v.1.15,2013-03-28 11:23:00,
2013-03-28 07:28:00,44.7,41.4,30.29,NNW,334,0.0,0.0,88,0.00,,,0.00,Wunderground v.1.15,2013-03-28 11:28:00,
2013-03-28 07:34:00,44.7,41.4,30.29,NNW,334,0.0,0.0,88,0.00,,,0.00,Wunderground v.1.15,2013-03-28 11:34:00,
2013-03-28 07:39:00,44.5,41.2,30.29,NNW,334,0.0,0.0,88,0.00,,,0.00,Wunderground v.1.15,2013-03-28 11:39:00,
2013-03-28 07:45:00,44.4,40.8,30.29,NNW,334,0.0,0.0,87,0.00,,,0.00,Wunderground v.1.15,2013-03-28 11:45:00,
2013-03-28 07:50:00,44.2,40.6,30.30,NNW,334,0.0,0.0,87,0.00,,,0.00,Wunderground v.1.15,2013-03-28 11:50:00,
2013-03-28 07:55:00,44.2,40.9,30.30,NNW,335,0.0,0.0,88,0.00,,,0.00,Wunderground v.1.15,2013-03-28 11:55:00,
2013-03-28 08:00:00,44.1,40.8,30.30,NNW,335,0.0,0.0,88,0.00,,,0.00,Wunderground v.1.15,2013-03-28 12:00:00,
2013-03-28 08:05:00,44.0,40.7,30.30,NNW,335,0.0,0.0,88,0.00,,,0.00,Wunderground v.1.15,2013-03-28 12:05:00,
2013-03-28 08:12:00,44.0,40.7,30.30,NNW,335,0.0,0.0,88,0.00,,,0.00,Wunderground v.1.15,2013-03-28 12:12:00,
2013-03-28 08:17:00,44.1,40.8,30.31,NNW,335,0.0,0.0,88,0.00,,,0.00,Wunderground v.1.15,2013-03-28 12:17:00,
2013-03-28 08:22:00,44.3,41.0,30.31,NNW,335,0.0,0.0,88,0.00,,,0.00,Wunderground v.1.15,2013-03-28 12:22:00,
2013-03-28 08:28:00,44.7,41.1,30.31,NNW,334,0.0,0.0,87,0.00,,,0.00,Wunderground v.1.15,2013-03-28 12:28:00,
2013-03-28 08:33:00,45.4,41.2,30.31,NNW,334,0.0,1.0,85,0.00,,,0.00,Wunderground v.1.15,2013-03-28 12:33:00,
2013-03-28 08:39:00,46.5,41.6,30.32,NNW,334,0.0,1.0,83,0.00,,,0.00,Wunderground v.1.15,2013-03-28 12:39:00,
2013-03-28 08:44:00,47.6,41.7,30.32,NNW,335,0.0,0.0,80,0.00,,,0.00,Wunderground v.1.15,2013-03-28 12:44:00,
2013-03-28 08:50:00,48.7,42.1,30.32,NNW,335,0.0,0.0,78,0.00,,,0.00,Wunderground v.1.15,2013-03-28 12:50:00,
2013-03-28 08:55:00,49.7,42.1,30.32,NNW,335,0.0,0.0,75,0.00,,,0.00,Wunderground v.1.15,2013-03-28 12:55:00,
2013-03-28 09:00:00,50.8,41.4,30.32,NNW,335,0.0,0.0,70,0.00,,,0.00,Wunderground v.1.15,2013-03-28 13:00:00,
2013-03-28 09:05:00,51.7,41.9,30.32,NNW,335,0.0,0.0,69,0.00,,,0.00,Wunderground v.1.15,2013-03-28 13:05:00,
2013-03-28 09:12:00,52.8,41.0,30.32,ENE,71,0.0,0.0,64,0.00,,,0.00,Wunderground v.1.15,2013-03-28 13:12:00,
2013-03-28 09:18:00,53.9,39.9,30.32,North,360,0.0,0.0,59,0.00,,,0.00,Wunderground v.1.15,2013-03-28 13:18:00,
2013-03-28 09:23:00,54.5,40.5,30.32,NNE,17,0.0,0.0,59,0.00,,,0.00,Wunderground v.1.15,2013-03-28 13:23:00,
2013-03-28 09:29:00,55.0,40.5,30.33,NE,36,0.0,0.0,58,0.00,,,0.00,Wunderground v.1.15,2013-03-28 13:29:00,
2013-03-28 09:34:00,55.5,40.5,30.33,NNE,22,0.0,0.0,57,0.00,,,0.00,Wunderground v.1.15,2013-03-28 13:34:00,
2013-03-28 09:40:00,56.2,38.3,30.33,NNE,21,0.0,1.0,51,0.00,,,0.00,Wunderground v.1.15,2013-03-28 13:40:00,
2013-03-28 09:45:00,56.6,38.2,30.33,ENE,77,0.0,1.0,50,0.00,,,0.00,Wunderground v.1.15,2013-03-28 13:45:00,
2013-03-28 09:50:00,56.9,37.9,30.33,NNE,15,1.0,1.0,49,0.00,,,0.00,Wunderground v.1.15,2013-03-28 13:50:00,
2013-03-28 09:56:00,57.1,38.6,30.33,NNE,22,1.0,3.0,50,0.00,,,0.00,Wunderground v.1.15,2013-03-28 13:56:00,
2013-03-28 10:02:00,57.5,38.5,30.33,NNE,32,0.0,0.0,49,0.00,,,0.00,Wunderground v.1.15,2013-03-28 14:02:00,
2013-03-28 10:07:00,58.2,39.1,30.33,NE,47,0.0,4.0,49,0.00,,,0.00,Wunderground v.1.15,2013-03-28 14:07:00,
2013-03-28 10:13:00,58.6,36.7,30.33,NNE,29,1.0,1.0,44,0.00,,,0.00,Wunderground v.1.15,2013-03-28 14:13:00,
2013-03-28 10:18:00,58.8,38.1,30.33,NE,39,1.0,1.0,46,0.00,,,0.00,Wunderground v.1.15,2013-03-28 14:18:00,
2013-03-28 10:24:00,59.3,39.1,30.33,NE,38,0.0,0.0,47,0.00,,,0.00,Wunderground v.1.15,2013-03-28 14:24:00,
2013-03-28 10:30:00,59.6,38.2,30.33,North,355,0.0,0.0,45,0.00,,,0.00,Wunderground v.1.15,2013-03-28 14:30:00,
2013-03-28 10:35:00,59.9,37.9,30.33,East,87,0.0,0.0,44,0.00,,,0.00,Wunderground v.1.15,2013-03-28 14:35:00,
2013-03-28 10:42:00,60.5,37.9,30.33,East,79,0.0,2.0,43,0.00,,,0.00,Wunderground v.1.15,2013-03-28 14:42:00,
2013-03-28 10:48:00,61.0,35.8,30.33,ENE,73,0.0,2.0,39,0.00,,,0.00,Wunderground v.1.15,2013-03-28 14:48:00,
2013-03-28 10:54:00,61.5,34.3,30.33,NE,38,0.0,0.0,36,0.00,,,0.00,Wunderground v.1.15,2013-03-28 14:54:00,
2013-03-28 11:00:00,61.6,32.9,30.33,North,355,1.0,1.0,34,0.00,,,0.00,Wunderground v.1.15,2013-03-28 15:00:00,
2013-03-28 11:05:00,61.7,33.7,30.33,ENE,64,1.0,5.0,35,0.00,,,0.00,Wunderground v.1.15,2013-03-28 15:05:00,
2013-03-28 11:12:00,61.8,33.8,30.33,East,92,1.0,2.0,35,0.00,,,0.00,Wunderground v.1.15,2013-03-28 15:12:00,
2013-03-28 11:18:00,61.9,33.9,30.33,NNE,24,1.0,3.0,35,0.00,,,0.00,Wunderground v.1.15,2013-03-28 15:18:00,
2013-03-28 11:24:00,62.2,34.2,30.33,NE,38,1.0,4.0,35,0.00,,,0.00,Wunderground v.1.15,2013-03-28 15:24:00,
2013-03-28 11:29:00,62.3,34.3,30.34,NE,34,1.0,4.0,35,0.00,,,0.00,Wunderground v.1.15,2013-03-28 15:29:00,
2013-03-28 11:35:00,62.6,35.3,30.33,NNE,19,0.0,3.0,36,0.00,,,0.00,Wunderground v.1.15,2013-03-28 15:35:00,
2013-03-28 11:40:00,62.7,34.6,30.33,NNE,25,1.0,1.0,35,0.00,,,0.00,Wunderground v.1.15,2013-03-28 15:40:00,
2013-03-28 11:46:00,63.1,35.0,30.33,NW,326,1.0,4.0,35,0.00,,,0.00,Wunderground v.1.15,2013-03-28 15:46:00,
2013-03-28 11:52:00,63.7,33.3,30.33,NE,38,1.0,1.0,32,0.00,,,0.00,Wunderground v.1.15,2013-03-28 15:52:00,
2013-03-28 12:04:00,64.3,32.2,30.33,ENE,59,0.0,6.0,30,0.00,,,0.00,Wunderground v.1.15,2013-03-28 16:04:00,
2013-03-28 12:10:00,64.8,33.4,30.33,North,360,0.0,3.0,31,0.00,,,0.00,Wunderground v.1.15,2013-03-28 16:10:00,
2013-03-28 12:17:00,64.7,32.5,30.32,NE,41,1.0,3.0,30,0.00,,,0.00,Wunderground v.1.15,2013-03-28 16:17:00,
2013-03-28 12:23:00,64.9,32.7,30.32,NE,45,1.0,4.0,30,0.00,,,0.00,Wunderground v.1.15,2013-03-28 16:23:00,
2013-03-28 12:28:00,65.2,33.8,30.32,ENE,61,1.0,4.0,31,0.00,,,0.00,Wunderground v.1.15,2013-03-28 16:28:00,
2013-03-28 12:33:00,65.7,32.5,30.32,ESE,107,0.0,1.0,29,0.00,,,0.00,Wunderground v.1.15,2013-03-28 16:33:00,
2013-03-28 12:39:00,66.1,32.9,30.32,ESE,121,0.0,0.0,29,0.00,,,0.00,Wunderground v.1.15,2013-03-28 16:39:00,
2013-03-28 12:44:00,66.5,34.1,30.32,ESE,107,0.0,0.0,30,0.00,,,0.00,Wunderground v.1.15,2013-03-28 16:44:00,
2013-03-28 12:49:00,66.9,32.7,30.32,ESE,106,0.0,0.0,28,0.00,,,0.00,Wunderground v.1.15,2013-03-28 16:49:00,
2013-03-28 12:55:00,67.0,32.8,30.32,East,97,0.0,0.0,28,0.00,,,0.00,Wunderground v.1.15,2013-03-28 16:55:00,
2013-03-28 13:00:00,66.8,32.6,30.32,East,90,0.0,0.0,28,0.00,,,0.00,Wunderground v.1.15,2013-03-28 17:00:00,
2013-03-28 13:05:00,67.7,33.4,30.32,ESE,107,0.0,4.0,28,0.00,,,0.00,Wunderground v.1.15,2013-03-28 17:05:00,
2013-03-28 13:12:00,68.7,33.3,30.31,NE,42,0.0,0.0,27,0.00,,,0.00,Wunderground v.1.15,2013-03-28 17:12:00,
2013-03-28 13:18:00,68.6,33.3,30.31,NE,36,0.0,0.0,27,0.00,,,0.00,Wunderground v.1.15,2013-03-28 17:18:00,
2013-03-28 13:24:00,68.6,31.3,30.31,North,5,0.0,1.0,25,0.00,,,0.00,Wunderground v.1.15,2013-03-28 17:24:00,
2013-03-28 13:29:00,68.1,31.9,30.31,NNE,33,1.0,3.0,26,0.00,,,0.00,Wunderground v.1.15,2013-03-28 17:29:00,
2013-03-28 13:34:00,67.6,32.4,30.30,NNE,24,1.0,1.0,27,0.00,,,0.00,Wunderground v.1.15,2013-03-28 17:34:00,
2013-03-28 13:40:00,68.0,31.8,30.30,ESE,103,0.0,0.0,26,0.00,,,0.00,Wunderground v.1.15,2013-03-28 17:40:00,
2013-03-28 13:45:00,68.5,33.2,30.30,ENE,75,0.0,0.0,27,0.00,,,0.00,Wunderground v.1.15,2013-03-28 17:45:00,
2013-03-28 13:51:00,69.0,31.7,30.30,NW,315,0.0,0.0,25,0.00,,,0.00,Wunderground v.1.15,2013-03-28 17:51:00,
2013-03-28 13:57:00,68.6,31.3,30.29,North,9,0.0,6.0,25,0.00,,,0.00,Wunderground v.1.15,2013-03-28 17:57:00,
2013-03-28 14:02:00,69.1,31.8,30.29,North,5,1.0,7.0,25,0.00,,,0.00,Wunderground v.1.15,2013-03-28 18:02:00,
2013-03-28 14:08:00,69.5,33.1,30.29,NNW,334,0.0,7.0,26,0.00,,,0.00,Wunderground v.1.15,2013-03-28 18:08:00,
2013-03-28 14:13:00,69.3,31.9,30.29,NW,326,1.0,3.0,25,0.00,,,0.00,Wunderground v.1.15,2013-03-28 18:13:00,
2013-03-28 14:19:00,68.4,31.2,30.29,NNE,30,2.0,5.0,25,0.00,,,0.00,Wunderground v.1.15,2013-03-28 18:19:00,
2013-03-28 14:25:00,68.5,32.2,30.28,NNW,342,1.0,1.0,26,0.00,,,0.00,Wunderground v.1.15,2013-03-28 18:25:00,
2013-03-28 14:31:00,69.0,33.6,30.28,NE,48,0.0,3.0,27,0.00,,,0.00,Wunderground v.1.15,2013-03-28 18:31:00,
2013-03-28 14:36:00,69.0,31.7,30.28,North,349,0.0,1.0,25,0.00,,,0.00,Wunderground v.1.15,2013-03-28 18:36:00,
2013-03-28 14:42:00,69.4,32.0,30.27,East,90,0.0,1.0,25,0.00,,,0.00,Wunderground v.1.15,2013-03-28 18:42:00,
2013-03-28 14:48:00,70.0,33.5,30.27,NNE,19,0.0,0.0,26,0.00,,,0.00,Wunderground v.1.15,2013-03-28 18:48:00,
2013-03-28 14:53:00,70.2,32.7,30.27,East,92,0.0,0.0,25,0.00,,,0.00,Wunderground v.1.15,2013-03-28 18:53:00,
2013-03-28 14:58:00,70.8,33.2,30.26,NW,311,0.0,0.0,25,0.00,,,0.00,Wunderground v.1.15,2013-03-28 18:58:00,
2013-03-28 15:03:00,70.7,33.1,30.26,SSE,156,0.0,7.0,25,0.00,,,0.00,Wunderground v.1.15,2013-03-28 19:03:00,
2013-03-28 15:09:00,70.9,33.3,30.25,NW,323,0.0,7.0,25,0.00,,,0.00,Wunderground v.1.15,2013-03-28 19:09:00,
2013-03-28 15:14:00,70.7,31.1,30.25,NNW,333,0.0,0.0,23,0.00,,,0.00,Wunderground v.1.15,2013-03-28 19:14:00,
2013-03-28 15:20:00,70.9,31.2,30.25,WNW,303,0.0,0.0,23,0.00,,,0.00,Wunderground v.1.15,2013-03-28 19:20:00,
2013-03-28 15:25:00,70.6,31.0,30.25,WNW,303,1.0,10.0,23,0.00,,,0.00,Wunderground v.1.15,2013-03-28 19:25:00,
2013-03-28 15:30:00,70.3,31.8,30.25,WNW,298,1.0,1.0,24,0.00,,,0.00,Wunderground v.1.15,2013-03-28 19:30:00,
2013-03-28 15:35:00,70.0,33.5,30.24,North,9,0.0,2.0,26,0.00,,,0.00,Wunderground v.1.15,2013-03-28 19:35:00,
2013-03-28 15:42:00,70.0,37.1,30.24,NW,309,1.0,7.0,30,0.00,,,0.00,Wunderground v.1.15,2013-03-28 19:42:00,
2013-03-28 15:48:00,69.3,37.3,30.24,WNW,298,3.0,7.0,31,0.00,,,0.00,Wunderground v.1.15,2013-03-28 19:48:00,
2013-03-28 15:53:00,69.4,38.2,30.24,NNW,346,2.0,3.0,32,0.00,,,0.00,Wunderground v.1.15,2013-03-28 19:53:00,
2013-03-28 15:58:00,69.2,37.3,30.24,WNW,300,2.0,7.0,31,0.00,,,0.00,Wunderground v.1.15,2013-03-28 19:58:00,
2013-03-28 16:04:00,68.8,38.5,30.24,WNW,298,3.0,9.0,33,0.00,,,0.00,Wunderground v.1.15,2013-03-28 20:04:00,
2013-03-28 16:10:00,68.8,38.5,30.24,NNW,333,2.0,2.0,33,0.00,,,0.00,Wunderground v.1.15,2013-03-28 20:10:00,
2013-03-28 16:15:00,69.2,38.1,30.23,NW,311,2.0,7.0,32,0.00,,,0.00,Wunderground v.1.15,2013-03-28 20:15:00,
2013-03-28 16:20:00,69.0,37.1,30.23,NW,305,2.0,3.0,31,0.00,,,0.00,Wunderground v.1.15,2013-03-28 20:20:00,
2013-03-28 16:25:00,68.7,36.0,30.23,NW,306,2.0,9.0,30,0.00,,,0.00,Wunderground v.1.15,2013-03-28 20:25:00,
2013-03-28 16:31:00,68.0,35.4,30.23,NNW,330,2.0,3.0,30,0.00,,,0.00,Wunderground v.1.15,2013-03-28 20:31:00,
2013-03-28 16:36:00,67.9,35.3,30.23,NNW,347,1.0,3.0,30,0.00,,,0.00,Wunderground v.1.15,2013-03-28 20:36:00,
2013-03-28 16:42:00,68.1,34.6,30.23,WNW,284,1.0,3.0,29,0.00,,,0.00,Wunderground v.1.15,2013-03-28 20:42:00,
2013-03-28 16:48:00,68.0,32.7,30.23,North,5,2.0,8.0,27,0.00,,,0.00,Wunderground v.1.15,2013-03-28 20:48:00,
2013-03-28 16:53:00,67.9,32.7,30.23,North,360,1.0,5.0,27,0.00,,,0.00,Wunderground v.1.15,2013-03-28 20:53:00,
2013-03-28 16:59:00,68.0,31.8,30.23,NW,310,2.0,5.0,26,0.00,,,0.00,Wunderground v.1.15,2013-03-28 20:59:00,
2013-03-28 17:04:00,68.1,29.9,30.23,NW,321,2.0,15.0,24,0.00,,,0.00,Wunderground v.1.15,2013-03-28 21:04:00,
2013-03-28 17:10:00,68.1,31.9,30.23,NW,305,1.0,1.0,26,0.00,,,0.00,Wunderground v.1.15,2013-03-28 21:10:00,
2013-03-28 17:15:00,68.0,31.8,30.23,NW,311,1.0,3.0,26,0.00,,,0.00,Wunderground v.1.15,2013-03-28 21:15:00,
2013-03-28 17:20:00,67.7,31.6,30.23,North,355,1.0,1.0,26,0.00,,,0.00,Wunderground v.1.15,2013-03-28 21:20:00,
2013-03-28 17:26:00,67.4,29.3,30.23,NNE,18,1.0,2.0,24,0.00,,,0.00,Wunderground v.1.15,2013-03-28 21:26:00,
2013-03-28 17:32:00,66.9,28.9,30.23,NW,319,1.0,6.0,24,0.00,,,0.00,Wunderground v.1.15,2013-03-28 21:32:00,
2013-03-28 17:37:00,66.6,28.6,30.23,NW,315,2.0,6.0,24,0.00,,,0.00,Wunderground v.1.15,2013-03-28 21:37:00,
2013-03-28 17:42:00,66.2,27.3,30.24,NW,306,1.0,9.0,23,0.00,,,0.00,Wunderground v.1.15,2013-03-28 21:42:00,
2013-03-28 17:47:00,66.1,27.2,30.24,NNW,327,2.0,9.0,23,0.00,,,0.00,Wunderground v.1.15,2013-03-28 21:47:00,
2013-03-28 17:53:00,65.8,29.9,30.23,NNW,335,1.0,2.0,26,0.00,,,0.00,Wunderground v.1.15,2013-03-28 21:53:00,
2013-03-28 17:58:00,65.7,27.9,30.24,West,281,1.0,4.0,24,0.00,,,0.00,Wunderground v.1.15,2013-03-28 21:58:00,
2013-03-28 18:04:00,65.6,28.8,30.24,North,355,1.0,9.0,25,0.00,,,0.00,Wunderground v.1.15,2013-03-28 22:04:00,
2013-03-28 18:10:00,65.3,26.5,30.24,WNW,296,1.0,1.0,23,0.00,,,0.00,Wunderground v.1.15,2013-03-28 22:10:00,
2013-03-28 18:15:00,65.1,27.4,30.24,North,360,1.0,1.0,24,0.00,,,0.00,Wunderground v.1.15,2013-03-28 22:15:00,
2013-03-28 18:20:00,65.0,26.3,30.25,WNW,299,1.0,1.0,23,0.00,,,0.00,Wunderground v.1.15,2013-03-28 22:20:00,
2013-03-28 18:26:00,64.8,29.1,30.25,NNE,27,2.0,4.0,26,0.00,,,0.00,Wunderground v.1.15,2013-03-28 22:26:00,
2013-03-28 18:31:00,64.6,28.9,30.25,WNW,291,1.0,7.0,26,0.00,,,0.00,Wunderground v.1.15,2013-03-28 22:31:00,
2013-03-28 18:37:00,64.2,28.6,30.25,WNW,303,2.0,7.0,26,0.00,,,0.00,Wunderground v.1.15,2013-03-28 22:37:00,
2013-03-28 18:43:00,63.9,28.3,30.25,NW,317,2.0,2.0,26,0.00,,,0.00,Wunderground v.1.15,2013-03-28 22:43:00,
2013-03-28 18:48:00,63.9,29.2,30.25,NNW,331,1.0,6.0,27,0.00,,,0.00,Wunderground v.1.15,2013-03-28 22:48:00,
2013-03-28 18:54:00,63.7,29.1,30.25,NW,312,1.0,4.0,27,0.00,,,0.00,Wunderground v.1.15,2013-03-28 22:54:00,
2013-03-28 19:00:00,63.2,29.5,30.26,WNW,292,3.0,5.0,28,0.00,,,0.00,Wunderground v.1.15,2013-03-28 23:00:00,
2013-03-28 19:05:00,62.7,29.1,30.26,NNW,330,4.0,10.0,28,0.00,,,0.00,Wunderground v.1.15,2013-03-28 23:05:00,
2013-03-28 19:11:00,62.4,29.7,30.26,NW,321,3.0,4.0,29,0.00,,,0.00,Wunderground v.1.15,2013-03-28 23:11:00,
2013-03-28 19:16:00,62.1,30.3,30.26,WNW,298,3.0,4.0,30,0.00,,,0.00,Wunderground v.1.15,2013-03-28 23:16:00,
2013-03-28 19:21:00,61.9,31.7,30.26,NNW,341,1.0,2.0,32,0.00,,,0.00,Wunderground v.1.15,2013-03-28 23:21:00,
2013-03-28 19:26:00,61.7,33.0,30.26,NNW,329,1.0,5.0,34,0.00,,,0.00,Wunderground v.1.15,2013-03-28 23:26:00,
2013-03-28 19:31:00,61.4,34.2,30.27,NW,323,3.0,5.0,36,0.00,,,0.00,Wunderground v.1.15,2013-03-28 23:31:00,
2013-03-28 19:37:00,61.0,34.5,30.27,WNW,302,3.0,7.0,37,0.00,,,0.00,Wunderground v.1.15,2013-03-28 23:37:00,
2013-03-28 19:42:00,60.7,34.9,30.26,WNW,292,3.0,3.0,38,0.00,,,0.00,Wunderground v.1.15,2013-03-28 23:42:00,
2013-03-28 19:47:00,60.4,35.9,30.26,WNW,298,2.0,5.0,40,0.00,,,0.00,Wunderground v.1.15,2013-03-28 23:47:00,
2013-03-28 19:52:00,60.2,36.4,30.27,NW,318,1.0,4.0,41,0.00,,,0.00,Wunderground v.1.15,2013-03-28 23:52:00,
2013-03-28 19:58:00,59.9,36.7,30.27,NW,306,1.0,5.0,42,0.00,,,0.00,Wunderground v.1.15,2013-03-28 23:58:00,
2013-03-28 20:03:00,59.7,37.2,30.26,NNW,337,2.0,14.0,43,0.00,,,0.00,Wunderground v.1.15,2013-03-29 00:03:00,
2013-03-28 20:09:00,59.5,37.0,30.26,North,351,2.0,14.0,43,0.00,,,0.00,Wunderground v.1.15,2013-03-29 00:09:00,
2013-03-28 20:14:00,59.3,37.4,30.27,NW,319,2.0,4.0,44,0.00,,,0.00,Wunderground v.1.15,2013-03-29 00:14:00,
2013-03-28 20:19:00,59.2,37.9,30.27,NNW,344,1.0,4.0,45,0.00,,,0.00,Wunderground v.1.15,2013-03-29 00:19:00,
2013-03-28 20:24:00,59.0,38.2,30.27,NNW,327,1.0,1.0,46,0.00,,,0.00,Wunderground v.1.15,2013-03-29 00:24:00,
2013-03-28 20:30:00,58.8,38.1,30.27,NNW,327,0.0,0.0,46,0.00,,,0.00,Wunderground v.1.15,2013-03-29 00:30:00,
2013-03-28 20:35:00,58.7,38.5,30.27,NNW,327,0.0,0.0,47,0.00,,,0.00,Wunderground v.1.15,2013-03-29 00:35:00,
2013-03-28 20:40:00,58.5,38.9,30.27,NW,326,0.0,0.0,48,0.00,,,0.00,Wunderground v.1.15,2013-03-29 00:40:00,
2013-03-28 20:45:00,58.3,39.2,30.27,NW,326,0.0,0.0,49,0.00,,,0.00,Wunderground v.1.15,2013-03-29 00:45:00,
2013-03-28 20:50:00,58.1,39.0,30.27,NW,326,0.0,0.0,49,0.00,,,0.00,Wunderground v.1.15,2013-03-29 00:50:00,
2013-03-28 20:55:00,58.0,39.5,30.27,NW,326,0.0,0.0,50,0.00,,,0.00,Wunderground v.1.15,2013-03-29 00:55:00,
2013-03-28 21:01:00,57.8,39.3,30.27,NW,326,0.0,6.0,50,0.00,,,0.00,Wunderground v.1.15,2013-03-29 01:01:00,
2013-03-28 21:06:00,57.6,39.6,30.27,NW,326,0.0,6.0,51,0.00,,,0.00,Wunderground v.1.15,2013-03-29 01:06:00,
2013-03-28 21:11:00,57.5,40.0,30.27,NW,326,0.0,0.0,52,0.00,,,0.00,Wunderground v.1.15,2013-03-29 01:11:00,
2013-03-28 21:17:00,57.3,40.3,30.28,NW,326,0.0,0.0,53,0.00,,,0.00,Wunderground v.1.15,2013-03-29 01:17:00,
2013-03-28 21:22:00,57.2,40.2,30.28,NW,326,0.0,0.0,53,0.00,,,0.00,Wunderground v.1.15,2013-03-29 01:22:00,
2013-03-28 21:28:00,57.0,40.5,30.28,NW,326,0.0,0.0,54,0.00,,,0.00,Wunderground v.1.15,2013-03-29 01:28:00,
2013-03-28 21:33:00,56.9,40.9,30.28,NW,326,0.0,0.0,55,0.00,,,0.00,Wunderground v.1.15,2013-03-29 01:33:00,
2013-03-28 21:39:00,56.8,41.3,30.28,NW,326,0.0,1.0,56,0.00,,,0.00,Wunderground v.1.15,2013-03-29 01:39:00,
2013-03-28 21:44:00,56.7,41.6,30.28,NW,326,0.0,0.0,57,0.00,,,0.00,Wunderground v.1.15,2013-03-29 01:44:00,
2013-03-28 21:49:00,56.6,42.0,30.28,NW,326,0.0,0.0,58,0.00,,,0.00,Wunderground v.1.15,2013-03-29 01:49:00,
2013-03-28 21:54:00,56.5,42.3,30.28,NW,326,0.0,0.0,59,0.00,,,0.00,Wunderground v.1.15,2013-03-29 01:54:00,
2013-03-28 22:00:00,56.4,42.7,30.29,NW,326,0.0,0.0,60,0.00,,,0.00,Wunderground v.1.15,2013-03-29 02:00:00,
2013-03-28 22:05:00,56.2,42.5,30.29,NW,326,0.0,3.0,60,0.00,,,0.00,Wunderground v.1.15,2013-03-29 02:05:00,
2013-03-28 22:11:00,56.1,42.8,30.29,NW,326,0.0,0.0,61,0.00,,,0.00,Wunderground v.1.15,2013-03-29 02:11:00,
2013-03-28 22:16:00,56.0,43.2,30.29,NW,326,0.0,0.0,62,0.00,,,0.00,Wunderground v.1.15,2013-03-29 02:16:00,
2013-03-28 22:22:00,55.9,43.5,30.29,NW,326,0.0,0.0,63,0.00,,,0.00,Wunderground v.1.15,2013-03-29 02:22:00,
2013-03-28 22:28:00,55.8,43.4,30.30,NW,326,0.0,0.0,63,0.00,,,0.00,Wunderground v.1.15,2013-03-29 02:28:00,
2013-03-28 22:33:00,55.6,43.6,30.29,NW,326,0.0,0.0,64,0.00,,,0.00,Wunderground v.1.15,2013-03-29 02:33:00,
2013-03-28 22:38:00,55.4,43.8,30.29,NW,326,0.0,0.0,65,0.00,,,0.00,Wunderground v.1.15,2013-03-29 02:38:00,
2013-03-28 22:43:00,55.3,43.7,30.29,NW,326,0.0,0.0,65,0.00,,,0.00,Wunderground v.1.15,2013-03-29 02:43:00,
2013-03-28 22:49:00,55.0,43.4,30.29,NW,326,0.0,0.0,65,0.00,,,0.00,Wunderground v.1.15,2013-03-29 02:49:00,
2013-03-28 22:54:00,54.8,43.7,30.30,NW,326,0.0,0.0,66,0.00,,,0.00,Wunderground v.1.15,2013-03-29 02:54:00,
2013-03-28 23:00:00,54.6,43.9,30.30,NW,326,0.0,0.0,67,0.00,,,0.00,Wunderground v.1.15,2013-03-29 03:00:00,
2013-03-28 23:05:00,54.4,44.1,30.30,NW,326,0.0,0.0,68,0.00,,,0.00,Wunderground v.1.15,2013-03-29 03:05:00,
2013-03-28 23:11:00,54.2,43.9,30.30,NW,326,0.0,0.0,68,0.00,,,0.00,Wunderground v.1.15,2013-03-29 03:11:00,
2013-03-28 23:17:00,53.9,44.3,30.30,NW,326,0.0,0.0,70,0.00,,,0.00,Wunderground v.1.15,2013-03-29 03:17:00,
2013-03-28 23:22:00,53.7,44.1,30.30,NW,326,0.0,0.0,70,0.00,,,0.00,Wunderground v.1.15,2013-03-29 03:22:00,
2013-03-28 23:28:00,53.5,44.3,30.31,NW,326,0.0,0.0,71,0.00,,,0.00,Wunderground v.1.15,2013-03-29 03:28:00,
2013-03-28 23:33:00,53.3,43.8,30.31,NW,326,0.0,0.0,70,0.00,,,0.00,Wunderground v.1.15,2013-03-29 03:33:00,
2013-03-28 23:38:00,53.2,44.0,30.31,NW,326,0.0,0.0,71,0.00,,,0.00,Wunderground v.1.15,2013-03-29 03:38:00,
2013-03-28 23:43:00,53.0,44.2,30.31,NW,326,0.0,0.0,72,0.00,,,0.00,Wunderground v.1.15,2013-03-29 03:43:00,
2013-03-28 23:49:00,52.8,44.4,30.31,NW,326,0.0,0.0,73,0.00,,,0.00,Wunderground v.1.15,2013-03-29 03:49:00,
2013-03-28 23:54:00,52.6,44.5,30.31,NW,326,0.0,0.0,74,0.00,,,0.00,Wunderground v.1.15,2013-03-29 03:54:00,